createdAt,value
2023-04-01T00:00:19.042Z,2.60
2023-04-01T00:01:21.276Z,2.28
2023-04-01T00:02:23.495Z,2.17
2023-04-01T00:03:27.725Z,2.90
2023-04-01T00:04:30.187Z,2.13
2023-04-01T00:05:32.548Z,3.05
2023-04-01T00:06:34.796Z,2.38
2023-04-01T00:07:40.419Z,2.55
2023-04-01T00:08:42.578Z,2.95
2023-04-01T00:09:44.689Z,2.58
2023-04-01T00:10:46.782Z,3.00
2023-04-01T00:11:49.170Z,2.38
2023-04-01T00:12:51.348Z,2.75
2023-04-01T00:13:53.560Z,2.60
2023-04-01T00:14:55.665Z,2.70
2023-04-01T00:16:00.021Z,2.70
2023-04-01T00:17:02.763Z,2.83
2023-04-01T00:18:05.735Z,3.22
2023-04-01T00:19:08.172Z,3.20
2023-04-01T00:20:10.820Z,2.83
2023-04-01T00:21:12.952Z,2.75
2023-04-01T00:22:15.121Z,2.60
2023-04-01T00:23:18.157Z,2.83
2023-04-01T00:24:20.294Z,2.85
2023-04-01T00:25:22.443Z,2.95
2023-04-01T00:26:25.679Z,2.63
2023-04-01T00:27:27.816Z,3.03
2023-04-01T00:28:30.686Z,2.65
2023-04-01T00:29:33.877Z,3.13
2023-04-01T00:30:37.560Z,2.83
2023-04-01T00:31:39.684Z,4.45
2023-04-01T00:32:41.980Z,2.95
2023-04-01T00:33:44.468Z,3.72
2023-04-01T00:34:46.653Z,3.10
2023-04-01T00:35:48.859Z,3.15
2023-04-01T00:36:53.294Z,3.53
2023-04-01T00:37:56.050Z,3.30
2023-04-01T00:38:59.929Z,3.25
2023-04-01T00:40:02.065Z,3.15
2023-04-01T00:41:05.616Z,3.53
2023-04-01T00:42:07.755Z,3.70
2023-04-01T00:43:13.921Z,3.90
2023-04-01T00:44:22.923Z,3.17
2023-04-01T00:45:32.867Z,3.47
2023-04-01T00:46:36.623Z,3.28
2023-04-01T00:47:38.765Z,2.88
2023-04-01T00:48:43.636Z,2.88
2023-04-01T00:49:48.226Z,3.25
2023-04-01T00:50:53.712Z,4.10
2023-04-01T00:51:57.215Z,3.83
2023-04-01T00:53:00.303Z,3.20
2023-04-01T00:54:04.682Z,3.22
2023-04-01T00:55:08.448Z,3.17
2023-04-01T00:56:17.330Z,3.30
2023-04-01T00:57:33.188Z,3.45
2023-04-01T00:58:39.659Z,2.80
2023-04-01T00:59:44.617Z,3.05
2023-04-01T01:00:48.136Z,3.83
2023-04-01T01:01:51.223Z,3.60
2023-04-01T01:02:53.498Z,2.90
2023-04-01T01:03:55.622Z,3.53
2023-04-01T01:04:57.757Z,3.25
2023-04-01T01:06:08.776Z,2.85
2023-04-01T01:07:16.678Z,3.17
2023-04-01T01:08:45.074Z,3.38
2023-04-01T01:09:56.796Z,3.08
2023-04-01T01:10:58.894Z,3.22
2023-04-01T01:12:19.047Z,2.83
2023-04-01T01:13:48.998Z,3.22
2023-04-01T01:15:03.044Z,2.63
2023-04-01T01:16:08.059Z,3.50
2023-04-01T01:17:27.542Z,2.65
2023-04-01T01:18:41.852Z,2.63
2023-04-01T01:20:15.510Z,2.80
2023-04-01T01:21:39.820Z,2.20
2023-04-01T01:22:56.682Z,2.75
2023-04-01T01:24:04.349Z,2.53
2023-04-01T01:25:42.192Z,2.90
2023-04-01T01:26:44.775Z,2.70
2023-04-01T01:27:58.147Z,2.25
2023-04-01T01:29:08.086Z,2.42
2023-04-01T01:30:33.361Z,2.40
2023-04-01T01:31:49.886Z,2.45
2023-04-01T01:33:19.247Z,2.45
2023-04-01T01:34:40.649Z,2.75
2023-04-01T01:35:48.479Z,2.33
2023-04-01T01:36:56.691Z,2.33
2023-04-01T01:38:05.019Z,2.30
2023-04-01T01:39:08.626Z,2.13
2023-04-01T01:40:13.022Z,1.90
2023-04-01T01:41:17.573Z,1.92
2023-04-01T01:42:21.670Z,2.17
2023-04-01T01:43:26.572Z,2.35
2023-04-01T01:44:29.862Z,2.38
2023-04-01T01:45:33.744Z,2.22
2023-04-01T01:46:37.210Z,2.10
2023-04-01T01:47:40.276Z,2.55
2023-04-01T01:48:43.351Z,1.83
2023-04-01T01:49:46.066Z,2.03
2023-04-01T01:50:49.656Z,1.88
2023-04-01T01:51:51.890Z,2.08
2023-04-01T01:53:03.268Z,2.15
2023-04-01T01:54:05.448Z,2.03
2023-04-01T01:55:25.859Z,2.28
2023-04-01T01:56:30.434Z,2.20
2023-04-01T01:57:35.506Z,2.80
2023-04-01T01:58:41.935Z,2.72
2023-04-01T01:59:44.788Z,2.40
2023-04-01T02:00:52.537Z,2.13
2023-04-01T02:01:56.908Z,2.33
2023-04-01T02:03:00.013Z,2.13
2023-04-01T02:04:02.660Z,2.30
2023-04-01T02:05:05.780Z,2.63
2023-04-01T02:06:11.963Z,3.30
2023-04-01T02:07:20.794Z,2.30
2023-04-01T02:08:27.607Z,2.53
2023-04-01T02:09:30.984Z,2.00
2023-04-01T02:10:36.962Z,2.35
2023-04-01T02:11:54.444Z,2.60
2023-04-01T02:14:14.258Z,2.42
2023-04-01T02:15:17.673Z,2.45
2023-04-01T02:16:30.950Z,2.40
2023-04-01T02:17:34.057Z,2.55
2023-04-01T02:18:38.497Z,2.10
2023-04-01T02:19:44.837Z,2.03
2023-04-01T02:20:47.142Z,2.22
2023-04-01T02:21:55.907Z,2.28
2023-04-01T02:23:00.729Z,2.10
2023-04-01T02:24:05.837Z,2.33
2023-04-01T02:25:13.948Z,1.85
2023-04-01T02:26:16.517Z,2.03
2023-04-01T02:27:19.516Z,2.03
2023-04-01T02:28:21.973Z,2.08
2023-04-01T02:29:26.117Z,1.58
2023-04-01T02:30:30.503Z,2.45
2023-04-01T02:31:33.429Z,1.85
2023-04-01T02:32:38.936Z,1.90
2023-04-01T02:33:41.423Z,2.17
2023-04-01T02:34:44.124Z,1.60
2023-04-01T02:35:46.559Z,1.75
2023-04-01T02:36:49.707Z,1.88
2023-04-01T02:37:53.688Z,2.03
2023-04-01T02:38:58.033Z,2.55
2023-04-01T02:40:01.998Z,1.63
2023-04-01T02:41:04.574Z,1.63
2023-04-01T02:42:06.909Z,1.95
2023-04-01T02:43:09.079Z,1.98
2023-04-01T02:44:12.623Z,1.63
2023-04-01T02:45:16.014Z,1.48
2023-04-01T02:46:18.145Z,1.65
2023-04-01T02:47:20.276Z,1.63
2023-04-01T02:48:22.734Z,1.70
2023-04-01T02:49:24.872Z,1.88
2023-04-01T02:50:27.069Z,1.73
2023-04-01T02:51:29.671Z,1.85
2023-04-01T02:52:32.785Z,1.73
2023-04-01T02:53:34.936Z,1.88
2023-04-01T02:54:37.066Z,1.60
2023-04-01T02:55:39.366Z,1.77
2023-04-01T02:56:41.483Z,1.55
2023-04-01T02:57:43.598Z,1.77
2023-04-01T02:58:45.905Z,1.70
2023-04-01T02:59:48.466Z,1.75
2023-04-01T03:00:50.720Z,2.20
2023-04-01T03:01:52.884Z,1.80
2023-04-01T03:02:55.109Z,1.85
2023-04-01T03:03:57.289Z,1.80
2023-04-01T03:04:59.446Z,2.15
2023-04-01T03:06:08.821Z,1.80
2023-04-01T03:07:11.348Z,1.77
2023-04-01T03:08:13.501Z,1.75
2023-04-01T03:09:15.912Z,1.85
2023-04-01T03:10:18.195Z,1.80
2023-04-01T03:11:20.845Z,2.25
2023-04-01T03:12:22.981Z,1.90
2023-04-01T03:13:25.092Z,1.83
2023-04-01T03:14:27.279Z,2.13
2023-04-01T03:15:29.520Z,1.73
2023-04-01T03:16:31.796Z,1.90
2023-04-01T03:17:33.979Z,1.70
2023-04-01T03:18:36.136Z,1.60
2023-04-01T03:19:38.259Z,2.00
2023-04-01T03:20:40.601Z,1.75
2023-04-01T03:21:42.765Z,1.77
2023-04-01T03:22:44.943Z,2.17
2023-04-01T03:23:47.074Z,1.95
2023-04-01T03:24:49.618Z,2.13
2023-04-01T03:25:51.945Z,2.00
2023-04-01T03:26:54.058Z,2.28
2023-04-01T03:27:56.273Z,2.10
2023-04-01T03:28:58.499Z,2.22
2023-04-01T03:30:00.809Z,2.25
2023-04-01T03:31:03.143Z,1.73
2023-04-01T03:32:05.779Z,1.85
2023-04-01T03:33:07.946Z,2.30
2023-04-01T03:34:10.563Z,1.67
2023-04-01T03:35:12.732Z,1.77
2023-04-01T03:36:15.121Z,1.73
2023-04-01T03:37:17.259Z,1.95
2023-04-01T03:38:19.512Z,1.92
2023-04-01T03:39:21.630Z,1.73
2023-04-01T03:40:24.309Z,2.20
2023-04-01T03:41:26.634Z,1.70
2023-04-01T03:42:28.800Z,1.80
2023-04-01T03:43:31.007Z,1.77
2023-04-01T03:44:34.368Z,2.00
2023-04-01T03:45:37.278Z,1.80
2023-04-01T03:46:40.174Z,1.73
2023-04-01T03:47:42.440Z,2.20
2023-04-01T03:48:44.591Z,1.77
2023-04-01T03:49:46.780Z,1.73
2023-04-01T03:50:49.412Z,1.80
2023-04-01T03:51:51.548Z,1.85
2023-04-01T03:52:53.732Z,2.42
2023-04-01T03:53:56.160Z,2.67
2023-04-01T03:54:58.283Z,2.63
2023-04-01T03:56:04.926Z,1.67
2023-04-01T03:57:07.418Z,2.40
2023-04-01T03:58:10.017Z,1.90
2023-04-01T03:59:12.275Z,2.08
2023-04-01T04:00:14.727Z,2.00
2023-04-01T04:01:22.110Z,2.03
2023-04-01T04:02:24.436Z,1.88
2023-04-01T04:03:27.305Z,1.77
2023-04-01T04:04:29.576Z,1.83
2023-04-01T04:05:32.509Z,2.17
2023-04-01T04:06:34.946Z,2.10
2023-04-01T04:07:37.161Z,1.73
2023-04-01T04:08:39.665Z,1.95
2023-04-01T04:09:41.796Z,1.83
2023-04-01T04:10:44.442Z,2.30
2023-04-01T04:11:46.570Z,1.75
2023-04-01T04:12:50.177Z,2.17
2023-04-01T04:13:53.277Z,2.00
2023-04-01T04:14:55.404Z,2.10
2023-04-01T04:15:57.512Z,1.67
2023-04-01T04:16:59.731Z,1.80
2023-04-01T04:18:02.040Z,1.80
2023-04-01T04:19:04.832Z,1.80
2023-04-01T04:20:07.536Z,2.00
2023-04-01T04:21:13.372Z,2.03
2023-04-01T04:22:15.726Z,2.10
2023-04-01T04:23:19.129Z,1.80
2023-04-01T04:24:21.281Z,2.35
2023-04-01T04:25:23.442Z,1.73
2023-04-01T04:26:26.752Z,1.80
2023-04-01T04:27:28.926Z,2.08
2023-04-01T04:28:31.040Z,1.58
2023-04-01T04:29:33.162Z,1.83
2023-04-01T04:30:35.358Z,2.00
2023-04-01T04:31:37.592Z,2.00
2023-04-01T04:32:39.784Z,2.05
2023-04-01T04:33:41.922Z,1.95
2023-04-01T04:34:44.043Z,1.90
2023-04-01T04:35:46.279Z,1.80
2023-04-01T04:36:48.480Z,1.88
2023-04-01T04:37:50.602Z,1.88
2023-04-01T04:38:52.739Z,2.10
2023-04-01T04:39:54.852Z,1.65
2023-04-01T04:40:56.976Z,1.95
2023-04-01T04:41:59.133Z,2.13
2023-04-01T04:43:01.242Z,1.83
2023-04-01T04:44:03.452Z,1.90
2023-04-01T04:45:06.400Z,2.05
2023-04-01T04:46:11.744Z,1.70
2023-04-01T04:47:14.049Z,2.08
2023-04-01T04:48:19.733Z,2.03
2023-04-01T04:49:22.332Z,2.20
2023-04-01T04:50:25.182Z,1.75
2023-04-01T04:51:27.337Z,2.38
2023-04-01T04:52:29.443Z,2.10
2023-04-01T04:53:31.700Z,2.10
2023-04-01T04:54:33.824Z,3.10
2023-04-01T04:55:36.032Z,2.28
2023-04-01T04:56:38.153Z,2.00
2023-04-01T04:57:40.311Z,2.15
2023-04-01T04:58:42.451Z,2.00
2023-04-01T04:59:44.605Z,1.90
2023-04-01T05:00:47.159Z,1.73
2023-04-01T05:01:49.372Z,1.90
2023-04-01T05:02:51.627Z,2.10
2023-04-01T05:03:53.791Z,2.05
2023-04-01T05:04:56.305Z,2.20
2023-04-01T05:05:58.429Z,1.95
2023-04-01T05:07:00.552Z,2.20
2023-04-01T05:08:02.972Z,2.17
2023-04-01T05:09:05.337Z,2.30
2023-04-01T05:10:07.714Z,1.90
2023-04-01T05:11:18.642Z,2.42
2023-04-01T05:12:20.882Z,1.95
2023-04-01T05:13:23.163Z,2.28
2023-04-01T05:14:25.369Z,2.03
2023-04-01T05:15:27.562Z,2.10
2023-04-01T05:16:29.776Z,2.13
2023-04-01T05:17:32.032Z,1.80
2023-04-01T05:18:34.181Z,1.85
2023-04-01T05:19:36.402Z,2.25
2023-04-01T05:20:38.544Z,2.28
2023-04-01T05:21:40.688Z,2.70
2023-04-01T05:22:43.343Z,2.08
2023-04-01T05:23:45.533Z,2.45
2023-04-01T05:24:47.686Z,2.13
2023-04-01T05:25:50.936Z,2.50
2023-04-01T05:26:54.232Z,2.03
2023-04-01T05:27:57.306Z,2.05
2023-04-01T05:28:59.395Z,2.17
2023-04-01T05:30:01.740Z,2.13
2023-04-01T05:31:04.365Z,2.22
2023-04-01T05:32:06.621Z,1.73
2023-04-01T05:33:09.347Z,2.10
2023-04-01T05:34:11.473Z,2.00
2023-04-01T05:35:13.622Z,2.28
2023-04-01T05:36:17.197Z,2.25
2023-04-01T05:37:19.885Z,2.38
2023-04-01T05:38:22.062Z,1.75
2023-04-01T05:39:24.554Z,2.63
2023-04-01T05:40:26.741Z,2.10
2023-04-01T05:41:28.876Z,2.17
2023-04-01T05:42:31.002Z,1.83
2023-04-01T05:43:33.219Z,1.92
2023-04-01T05:44:36.118Z,1.83
2023-04-01T05:45:38.649Z,2.13
2023-04-01T05:46:40.934Z,1.92
2023-04-01T05:47:43.372Z,1.80
2023-04-01T05:48:45.673Z,2.20
2023-04-01T05:49:47.877Z,1.80
2023-04-01T05:50:50.075Z,2.25
2023-04-01T05:51:52.411Z,1.60
2023-04-01T05:52:54.675Z,1.90
2023-04-01T05:53:56.807Z,1.65
2023-04-01T05:54:59.820Z,1.80
2023-04-01T05:56:05.090Z,1.83
2023-04-01T05:57:07.514Z,2.22
2023-04-01T05:58:09.676Z,1.70
2023-04-01T05:59:12.496Z,1.80
2023-04-01T06:00:15.501Z,2.20
2023-04-01T06:01:17.692Z,2.42
2023-04-01T06:02:20.490Z,2.20
2023-04-01T06:03:22.804Z,1.83
2023-04-01T06:04:26.175Z,1.80
2023-04-01T06:05:30.458Z,2.15
2023-04-01T06:06:33.538Z,1.80
2023-04-01T06:07:35.647Z,1.98
2023-04-01T06:08:37.788Z,2.20
2023-04-01T06:09:40.369Z,2.05
2023-04-01T06:11:04.668Z,1.83
2023-04-01T06:12:21.780Z,1.80
2023-04-01T06:14:01.628Z,1.70
2023-04-01T06:15:09.495Z,2.25
2023-04-01T06:16:51.223Z,1.73
2023-04-01T06:18:20.678Z,1.92
2023-04-01T06:19:22.782Z,1.73
2023-04-01T06:20:24.860Z,1.58
2023-04-01T06:21:32.959Z,1.50
2023-04-01T06:22:54.044Z,1.65
2023-04-01T06:24:19.912Z,2.15
2023-04-01T06:25:22.051Z,1.67
2023-04-01T06:26:24.111Z,1.90
2023-04-01T06:27:42.966Z,2.08
2023-04-01T06:28:51.090Z,1.92
2023-04-01T06:30:21.781Z,1.73
2023-04-01T06:32:01.474Z,2.25
2023-04-01T06:34:00.974Z,1.92
2023-04-01T06:35:11.827Z,2.17
2023-04-01T06:36:31.715Z,2.17
2023-04-01T06:38:20.608Z,2.33
2023-04-01T06:39:37.857Z,2.10
2023-04-01T06:41:09.955Z,2.28
2023-04-01T06:42:29.249Z,2.00
2023-04-01T06:44:20.438Z,2.00
2023-04-01T06:45:31.886Z,1.85
2023-04-01T06:46:49.706Z,2.10
2023-04-01T06:49:27.629Z,2.17
2023-04-01T06:51:26.785Z,2.05
2023-04-01T06:52:47.563Z,2.00
2023-04-01T06:54:06.171Z,2.10
2023-04-01T06:55:28.762Z,2.08
2023-04-01T06:56:31.613Z,3.25
2023-04-01T06:57:57.553Z,2.17
2023-04-01T06:59:05.414Z,2.20
2023-04-01T07:00:23.989Z,1.73
2023-04-01T07:01:35.548Z,2.15
2023-04-01T07:02:44.617Z,2.90
2023-04-01T07:03:58.348Z,1.70
2023-04-01T07:05:00.891Z,2.15
2023-04-01T07:06:10.008Z,1.75
2023-04-01T07:07:39.731Z,1.92
2023-04-01T07:08:44.413Z,1.90
2023-04-01T07:10:59.862Z,2.33
2023-04-01T07:12:07.191Z,2.10
2023-04-01T07:13:17.207Z,1.73
2023-04-01T07:14:26.712Z,2.40
2023-04-01T07:15:35.689Z,1.98
2023-04-01T07:16:47.818Z,2.03
2023-04-01T07:18:04.679Z,2.00
2023-04-01T07:19:22.960Z,1.90
2023-04-01T07:20:29.131Z,1.83
2023-04-01T07:21:41.919Z,1.88
2023-04-01T07:22:49.517Z,1.85
2023-04-01T07:23:53.122Z,1.90
2023-04-01T07:24:55.771Z,2.10
2023-04-01T07:26:02.051Z,2.03
2023-04-01T07:27:09.782Z,1.85
2023-04-01T07:28:19.955Z,2.10
2023-04-01T07:29:22.412Z,2.13
2023-04-01T07:30:25.960Z,1.92
2023-04-01T07:31:46.339Z,1.92
2023-04-01T07:32:58.623Z,2.03
2023-04-01T07:34:12.078Z,1.90
2023-04-01T07:35:26.481Z,2.35
2023-04-01T07:36:31.236Z,1.70
2023-04-01T07:38:00.037Z,1.88
2023-04-01T07:39:29.363Z,2.25
2023-04-01T07:40:31.425Z,1.90
2023-04-01T07:42:01.367Z,2.35
2023-04-01T07:43:12.156Z,2.00
2023-04-01T07:44:22.235Z,1.80
2023-04-01T07:45:45.365Z,1.77
2023-04-01T07:47:13.576Z,1.67
2023-04-01T07:48:18.304Z,2.42
2023-04-01T07:50:56.228Z,1.73
2023-04-01T07:51:59.766Z,1.67
2023-04-01T07:53:27.073Z,2.08
2023-04-01T07:54:47.440Z,1.80
2023-04-01T07:56:12.841Z,1.77
2023-04-01T07:57:22.962Z,2.03
2023-04-01T07:58:52.890Z,1.63
2023-04-01T08:00:21.807Z,1.42
2023-04-01T08:01:48.514Z,1.70
2023-04-01T08:03:11.688Z,1.70
2023-04-01T08:04:36.823Z,1.77
2023-04-01T08:05:47.729Z,2.08
2023-04-01T08:06:54.396Z,1.50
2023-04-01T08:08:30.663Z,1.52
2023-04-01T08:09:49.223Z,1.63
2023-04-01T08:11:09.902Z,1.88
2023-04-01T08:12:38.371Z,1.40
2023-04-01T08:14:18.519Z,1.50
2023-04-01T08:15:36.812Z,1.52
2023-04-01T08:16:49.229Z,1.80
2023-04-01T08:18:32.106Z,1.83
2023-04-01T08:21:00.600Z,1.80
2023-04-01T08:22:05.979Z,1.90
2023-04-01T08:23:14.872Z,1.70
2023-04-01T08:24:37.350Z,1.98
2023-04-01T08:26:04.309Z,2.03
2023-04-01T08:28:58.062Z,1.80
2023-04-01T08:30:20.564Z,2.17
2023-04-01T08:31:55.265Z,1.90
2023-04-01T08:33:11.462Z,1.80
2023-04-01T08:34:21.046Z,1.48
2023-04-01T08:35:48.281Z,1.85
2023-04-01T08:36:58.802Z,1.52
2023-04-01T08:38:12.383Z,1.85
2023-04-01T08:39:19.861Z,1.70
2023-04-01T08:40:56.940Z,1.67
2023-04-01T08:42:36.289Z,2.00
2023-04-01T08:44:01.282Z,1.75
2023-04-01T08:45:42.840Z,1.77
2023-04-01T08:47:09.582Z,1.83
2023-04-01T08:48:38.094Z,1.80
2023-04-01T08:50:04.843Z,1.70
2023-04-01T08:51:19.177Z,1.63
2023-04-01T08:52:35.571Z,1.90
2023-04-01T08:54:22.875Z,1.73
2023-04-01T08:55:48.256Z,2.33
2023-04-01T08:56:59.452Z,1.90
2023-04-01T08:58:38.108Z,1.75
2023-04-01T09:00:21.721Z,1.45
2023-04-01T09:01:26.643Z,1.83
2023-04-01T09:02:50.021Z,1.70
2023-04-01T09:04:16.979Z,1.88
2023-04-01T09:05:43.735Z,3.80
2023-04-01T09:07:17.914Z,2.78
2023-04-01T09:08:32.049Z,1.90
2023-04-01T09:09:47.121Z,1.88
2023-04-01T09:10:49.232Z,1.65
2023-04-01T09:12:21.089Z,1.80
2023-04-01T09:13:35.395Z,1.67
2023-04-01T09:14:58.798Z,2.30
2023-04-01T09:16:26.624Z,1.85
2023-04-01T09:17:31.233Z,1.95
2023-04-01T09:19:49.462Z,2.10
2023-04-01T09:21:31.565Z,2.00
2023-04-01T09:22:54.437Z,1.73
2023-04-01T09:24:14.400Z,1.90
2023-04-01T09:25:49.558Z,1.58
2023-04-01T09:27:13.293Z,1.70
2023-04-01T09:29:55.082Z,1.85
2023-04-01T09:31:13.453Z,1.80
2023-04-01T09:32:37.148Z,1.65
2023-04-01T09:35:03.263Z,1.80
2023-04-01T09:36:19.236Z,2.03
2023-04-01T09:37:45.574Z,1.65
2023-04-01T09:38:59.416Z,1.73
2023-04-01T09:40:19.532Z,1.80
2023-04-01T09:41:24.720Z,1.90
2023-04-01T09:42:41.853Z,1.70
2023-04-01T09:43:55.883Z,2.05
2023-04-01T09:45:01.921Z,1.95
2023-04-01T09:46:11.700Z,2.30
2023-04-01T09:47:35.134Z,2.30
2023-04-01T09:48:56.117Z,1.48
2023-04-01T09:50:34.332Z,2.50
2023-04-01T09:51:50.960Z,2.30
2023-04-01T09:52:56.040Z,1.80
2023-04-01T09:54:13.322Z,1.73
2023-04-01T09:55:35.770Z,3.20
2023-04-01T09:56:40.611Z,2.13
2023-04-01T09:58:03.189Z,2.40
2023-04-01T09:59:24.518Z,2.30
2023-04-01T10:00:44.668Z,1.95
2023-04-01T10:01:53.840Z,2.00
2023-04-01T10:02:58.732Z,1.95
2023-04-01T10:04:09.692Z,1.98
2023-04-01T10:05:25.210Z,1.63
2023-04-01T10:06:39.013Z,2.20
2023-04-01T10:08:29.165Z,1.70
2023-04-01T10:09:54.394Z,2.05
2023-04-01T10:11:05.283Z,2.33
2023-04-01T10:12:17.714Z,1.88
2023-04-01T10:13:50.590Z,2.08
2023-04-01T10:15:04.570Z,1.98
2023-04-01T10:16:56.880Z,2.30
2023-04-01T10:18:17.045Z,2.05
2023-04-01T10:19:40.475Z,2.25
2023-04-01T10:21:08.004Z,2.35
2023-04-01T10:22:18.886Z,2.00
2023-04-01T10:23:39.137Z,1.90
2023-04-01T10:25:27.475Z,2.05
2023-04-01T10:26:48.354Z,2.22
2023-04-01T10:28:07.416Z,2.38
2023-04-01T10:29:38.646Z,1.92
2023-04-01T10:31:08.337Z,2.10
2023-04-01T10:32:19.365Z,2.25
2023-04-01T10:34:46.523Z,2.40
2023-04-01T10:36:31.090Z,2.20
2023-04-01T10:37:49.636Z,1.75
2023-04-01T10:39:22.666Z,2.10
2023-04-01T10:40:46.413Z,2.10
2023-04-01T10:42:04.612Z,3.70
2023-04-01T10:43:25.324Z,2.20
2023-04-01T10:44:35.453Z,2.78
2023-04-01T10:45:59.311Z,2.63
2023-04-01T10:47:23.202Z,2.50
2023-04-01T10:48:49.865Z,2.97
2023-04-01T10:50:15.434Z,2.25
2023-04-01T10:51:48.718Z,2.33
2023-04-01T10:53:23.261Z,2.38
2023-04-01T10:54:47.699Z,2.30
2023-04-01T10:56:08.490Z,2.80
2023-04-01T10:57:16.392Z,2.30
2023-04-01T10:58:30.715Z,2.53
2023-04-01T10:59:53.056Z,2.38
2023-04-01T11:01:16.566Z,2.30
2023-04-01T11:02:40.194Z,2.28
2023-04-01T11:04:05.604Z,2.00
2023-04-01T11:05:35.891Z,2.30
2023-04-01T11:07:07.149Z,1.92
2023-04-01T11:08:09.688Z,2.00
2023-04-01T11:09:33.554Z,2.30
2023-04-01T11:11:14.624Z,2.08
2023-04-01T11:12:54.806Z,1.92
2023-04-01T11:14:05.972Z,2.10
2023-04-01T11:15:20.463Z,2.80
2023-04-01T11:16:47.925Z,3.55
2023-04-01T11:18:17.822Z,2.67
2023-04-01T11:19:28.722Z,2.45
2023-04-01T11:21:04.542Z,2.20
2023-04-01T11:22:15.680Z,2.10
2023-04-01T11:23:28.489Z,1.70
2023-04-01T11:24:41.019Z,2.50
2023-04-01T11:26:01.335Z,2.42
2023-04-01T11:27:30.331Z,2.20
2023-04-01T11:28:44.789Z,1.58
2023-04-01T11:30:07.886Z,2.20
2023-04-01T11:31:28.610Z,1.52
2023-04-01T11:32:49.060Z,1.70
2023-04-01T11:34:13.391Z,1.88
2023-04-01T11:35:21.177Z,2.00
2023-04-01T11:36:57.187Z,1.55
2023-04-01T11:40:11.198Z,1.85
2023-04-01T11:41:38.265Z,1.65
2023-04-01T11:42:53.088Z,1.50
2023-04-01T11:44:12.019Z,2.20
2023-04-01T11:45:16.825Z,1.60
2023-04-01T11:47:01.254Z,2.20
2023-04-01T11:48:25.401Z,1.52
2023-04-01T11:49:33.237Z,2.22
2023-04-01T11:50:59.182Z,1.85
2023-04-01T11:52:04.156Z,1.95
2023-04-01T11:53:31.293Z,1.92
2023-04-01T11:54:51.895Z,1.80
2023-04-01T11:56:12.330Z,1.88
2023-04-01T11:57:35.024Z,1.55
2023-04-01T11:59:00.023Z,2.00
2023-04-01T12:00:24.845Z,1.70
2023-04-01T12:01:50.566Z,1.83
2023-04-01T12:03:11.316Z,2.00
2023-04-01T12:04:47.227Z,3.65
2023-04-01T12:06:14.005Z,2.88
2023-04-01T12:07:34.897Z,1.73
2023-04-01T12:08:45.919Z,1.75
2023-04-01T12:09:57.798Z,1.83
2023-04-01T12:11:08.720Z,2.75
2023-04-01T12:12:31.176Z,1.80
2023-04-01T12:13:46.726Z,2.15
2023-04-01T12:15:10.128Z,2.13
2023-04-01T12:16:47.742Z,1.77
2023-04-01T12:18:14.740Z,1.77
2023-04-01T12:19:34.202Z,1.60
2023-04-01T12:20:59.075Z,1.60
2023-04-01T12:22:25.883Z,2.25
2023-04-01T12:23:51.944Z,1.60
2023-04-01T12:25:00.400Z,1.60
2023-04-01T12:26:26.491Z,1.73
2023-04-01T12:27:59.598Z,2.00
2023-04-01T12:29:01.898Z,1.80
2023-04-01T12:30:34.633Z,1.95
2023-04-01T12:31:43.308Z,1.80
2023-04-01T12:33:21.648Z,1.67
2023-04-01T12:34:58.977Z,1.60
2023-04-01T12:36:08.709Z,1.60
2023-04-01T12:37:13.632Z,1.80
2023-04-01T12:38:33.796Z,2.08
2023-04-01T12:40:12.648Z,2.00
2023-04-01T12:41:26.927Z,2.30
2023-04-01T12:43:00.542Z,2.35
2023-04-01T12:44:07.592Z,1.83
2023-04-01T12:45:24.989Z,1.83
2023-04-01T12:48:02.516Z,2.28
2023-04-01T12:49:32.730Z,1.70
2023-04-01T12:50:40.444Z,1.80
2023-04-01T12:52:02.058Z,1.85
2023-04-01T12:53:04.333Z,1.95
2023-04-01T12:54:54.626Z,1.90
2023-04-01T12:55:57.178Z,1.75
2023-04-01T12:57:23.740Z,2.20
2023-04-01T12:58:41.240Z,1.52
2023-04-01T12:59:52.201Z,1.80
2023-04-01T13:02:17.545Z,1.50
2023-04-01T13:03:26.539Z,1.73
2023-04-01T13:04:41.024Z,1.58
2023-04-01T13:06:11.660Z,1.60
2023-04-01T13:07:31.813Z,1.73
2023-04-01T13:09:17.927Z,1.40
2023-04-01T13:10:25.886Z,1.40
2023-04-01T13:11:52.730Z,1.60
2023-04-01T13:13:22.108Z,1.33
2023-04-01T13:14:38.581Z,2.03
2023-04-01T13:15:59.069Z,1.65
2023-04-01T13:17:18.901Z,1.35
2023-04-01T13:18:36.237Z,1.92
2023-04-01T13:20:01.923Z,1.80
2023-04-01T13:21:24.775Z,1.33
2023-04-01T13:22:39.032Z,1.45
2023-04-01T13:23:56.469Z,1.38
2023-04-01T13:25:22.617Z,1.80
2023-04-01T13:26:34.078Z,1.63
2023-04-01T13:27:44.666Z,1.52
2023-04-01T13:28:58.634Z,1.48
2023-04-01T13:30:26.682Z,1.40
2023-04-01T13:31:34.732Z,1.48
2023-04-01T13:32:48.638Z,1.70
2023-04-01T13:34:07.443Z,1.27
2023-04-01T13:35:27.642Z,1.63
2023-04-01T13:36:44.408Z,1.60
2023-04-01T13:38:11.522Z,1.60
2023-04-01T13:39:33.016Z,1.85
2023-04-01T13:40:49.328Z,3.88
2023-04-01T13:42:15.550Z,1.58
2023-04-01T13:43:41.037Z,2.17
2023-04-01T13:44:52.878Z,1.45
2023-04-01T13:46:03.806Z,1.70
2023-04-01T13:47:26.812Z,1.73
2023-04-01T13:48:53.062Z,1.63
2023-04-01T13:50:18.076Z,1.20
2023-04-01T13:51:46.505Z,1.40
2023-04-01T13:52:51.462Z,1.52
2023-04-01T13:54:18.180Z,1.77
2023-04-01T13:55:23.030Z,1.55
2023-04-01T13:57:10.091Z,1.25
2023-04-01T13:58:12.177Z,1.40
2023-04-01T13:59:32.679Z,1.40
2023-04-01T14:00:46.573Z,1.50
2023-04-01T14:02:19.306Z,1.58
2023-04-01T14:03:59.241Z,1.33
2023-04-01T14:05:22.343Z,1.58
2023-04-01T14:06:41.332Z,1.45
2023-04-01T14:08:01.435Z,1.58
2023-04-01T14:09:23.151Z,1.70
2023-04-01T14:10:43.647Z,1.52
2023-04-01T14:12:05.177Z,1.42
2023-04-01T14:13:19.706Z,1.63
2023-04-01T14:14:33.828Z,1.52
2023-04-01T14:16:00.569Z,1.75
2023-04-01T14:17:22.128Z,1.67
2023-04-01T14:18:51.903Z,1.48
2023-04-01T14:20:08.012Z,1.45
2023-04-01T14:21:51.490Z,1.42
2023-04-01T14:23:00.863Z,1.70
2023-04-01T14:24:14.986Z,1.67
2023-04-01T14:25:28.730Z,1.10
2023-04-01T14:26:36.785Z,1.60
2023-04-01T14:28:06.542Z,1.60
2023-04-01T14:29:43.970Z,1.33
2023-04-01T14:31:10.731Z,1.70
2023-04-01T14:32:20.477Z,1.27
2023-04-01T14:33:41.173Z,1.30
2023-04-01T14:35:14.251Z,1.33
2023-04-01T14:36:44.843Z,1.48
2023-04-01T14:38:25.864Z,1.55
2023-04-01T14:39:40.422Z,1.60
2023-04-01T14:40:57.731Z,1.52
2023-04-01T14:43:55.601Z,1.48
2023-04-01T14:44:57.716Z,1.58
2023-04-01T14:46:33.607Z,1.63
2023-04-01T14:47:45.746Z,1.48
2023-04-01T14:48:54.207Z,2.10
2023-04-01T14:50:06.903Z,1.60
2023-04-01T14:51:22.093Z,1.60
2023-04-01T14:52:29.837Z,1.50
2023-04-01T14:53:39.905Z,1.60
2023-04-01T14:54:45.524Z,1.30
2023-04-01T14:55:52.094Z,1.85
2023-04-01T14:57:06.310Z,1.60
2023-04-01T14:58:11.287Z,1.60
2023-04-01T14:59:22.294Z,1.50
2023-04-01T15:00:24.504Z,1.95
2023-04-01T15:01:51.790Z,1.50
2023-04-01T15:03:16.020Z,1.48
2023-04-01T15:04:39.443Z,1.67
2023-04-01T15:06:16.043Z,1.83
2023-04-01T15:07:27.189Z,2.05
2023-04-01T15:08:31.415Z,1.65
2023-04-01T15:09:49.028Z,1.88
2023-04-01T15:11:02.157Z,1.42
2023-04-01T15:12:34.435Z,1.58
2023-04-01T15:13:42.899Z,1.50
2023-04-01T15:15:04.077Z,1.88
2023-04-01T15:16:27.466Z,1.70
2023-04-01T15:17:48.723Z,1.63
2023-04-01T15:18:59.823Z,1.90
2023-04-01T15:20:44.926Z,1.85
2023-04-01T15:22:00.829Z,2.38
2023-04-01T15:23:21.612Z,2.05
2023-04-01T15:24:26.260Z,2.40
2023-04-01T15:25:40.888Z,1.83
2023-04-01T15:27:05.311Z,1.73
2023-04-01T15:28:34.345Z,1.83
2023-04-01T15:30:02.071Z,1.50
2023-04-01T15:31:29.634Z,1.95
2023-04-01T15:32:56.480Z,1.50
2023-04-01T15:34:04.486Z,1.77
2023-04-01T15:35:56.900Z,1.70
2023-04-01T15:37:36.349Z,1.67
2023-04-01T15:39:00.343Z,1.35
2023-04-01T15:40:20.010Z,1.65
2023-04-01T15:41:43.263Z,1.77
2023-04-01T15:42:57.044Z,2.05
2023-04-01T15:43:59.193Z,1.55
2023-04-01T15:45:14.830Z,2.15
2023-04-01T15:46:26.529Z,1.60
2023-04-01T15:47:43.719Z,1.60
2023-04-01T15:49:24.311Z,1.38
2023-04-01T15:50:32.294Z,1.42
2023-04-01T15:51:59.240Z,2.33
2023-04-01T15:53:04.281Z,1.52
2023-04-01T15:54:44.089Z,1.73
2023-04-01T15:56:01.150Z,1.60
2023-04-01T15:57:15.896Z,1.65
2023-04-01T15:58:26.709Z,1.50
2023-04-01T16:00:06.391Z,1.30
2023-04-01T16:01:14.308Z,1.63
2023-04-01T16:02:34.163Z,1.67
2023-04-01T16:03:42.621Z,1.67
2023-04-01T16:05:16.891Z,1.50
2023-04-01T16:06:51.840Z,2.03
2023-04-01T16:08:08.381Z,1.60
2023-04-01T16:09:39.607Z,1.65
2023-04-01T16:10:57.806Z,1.40
2023-04-01T16:12:30.839Z,1.05
2023-04-01T16:13:43.882Z,1.17
2023-04-01T16:15:17.048Z,1.20
2023-04-01T16:16:39.431Z,1.30
2023-04-01T16:18:10.799Z,1.98
2023-04-01T16:19:33.253Z,1.20
2023-04-01T16:20:58.055Z,1.13
2023-04-01T16:22:09.926Z,1.40
2023-04-01T16:23:21.723Z,1.33
2023-04-01T16:24:41.849Z,1.45
2023-04-01T16:26:03.110Z,1.00
2023-04-01T16:27:16.229Z,1.42
2023-04-01T16:28:28.778Z,1.25
2023-04-01T16:29:33.786Z,1.10
2023-04-01T16:30:43.709Z,1.30
2023-04-01T16:32:01.175Z,1.58
2023-04-01T16:34:28.640Z,1.40
2023-04-01T16:35:38.436Z,1.42